Time;durP1;ratioP1;P1;durP2;ratioP2;P2;SDS_P1;SDS_P2;PMS_P1;PMS_P2;Temp;Humidity;BMP_temperature;BMP_pressure;BME280_temperature;BME280_humidity;BME280_pressure;Samples;Min_cycle;Max_cycle;Signal;HPM_P1;HPM_P2
2021/03/10 00:01:46;;;;;;;18.20;15.55;;;;;;;;;;5011860;28;20072;-68
2021/03/10 00:04:32;;;;;;;19.40;15.93;;;;;;;;;;5034474;28;20045;-67
2021/03/10 00:07:17;;;;;;;18.95;15.70;;;;;;;;;;5035833;28;20049;-67
2021/03/10 00:10:04;;;;;;;20.88;16.10;;;;;;;;;;5020067;28;20045;-68
2021/03/10 00:12:49;;;;;;;18.85;15.48;;;;;;;;;;5036046;28;20057;-67
2021/03/10 00:15:34;;;;;;;21.55;16.92;;;;;;;;;;5035834;28;20045;-67
2021/03/10 00:18:19;;;;;;;22.48;18.20;;;;;;;;;;5034624;28;20393;-67
2021/03/10 00:21:05;;;;;;;20.25;15.63;;;;;;;;;;5145238;22;20443;-63
2021/03/10 00:23:50;;;;;;;20.85;16.75;;;;;;;;;;5115038;28;20043;-64
2021/03/10 00:26:36;;;;;;;21.77;17.15;;;;;;;;;;5115178;28;20039;-63
2021/03/10 00:29:21;;;;;;;21.42;17.52;;;;;;;;;;5115345;28;20408;-64
2021/03/10 00:32:07;;;;;;;25.27;18.23;;;;;;;;;;5115259;28;20104;-63
2021/03/10 00:34:52;;;;;;;24.08;19.25;;;;;;;;;;5114459;28;20169;-63
2021/03/10 00:37:38;;;;;;;24.58;18.95;;;;;;;;;;5094810;28;20393;-63
2021/03/10 00:40:23;;;;;;;25.48;18.23;;;;;;;;;;5094629;28;20047;-63
2021/03/10 00:43:09;;;;;;;25.77;19.25;;;;;;;;;;5094640;28;20048;-63
2021/03/10 00:45:54;;;;;;;27.50;20.50;;;;;;;;;;5094430;28;20071;-63
2021/03/10 00:48:39;;;;;;;26.63;20.25;;;;;;;;;;5094665;28;20059;-64
2021/03/10 00:51:25;;;;;;;28.10;20.55;;;;;;;;;;5094421;28;20517;-63
2021/03/10 00:54:10;;;;;;;26.77;20.27;;;;;;;;;;5098123;28;20035;-63
2021/03/10 00:56:55;;;;;;;25.25;19.05;;;;;;;;;;5114896;28;20054;-63
2021/03/10 00:59:41;;;;;;;27.25;20.10;;;;;;;;;;5114716;28;20063;-63
2021/03/10 01:02:26;;;;;;;26.73;19.90;;;;;;;;;;5114641;28;20508;-63
2021/03/10 01:05:12;;;;;;;29.13;21.15;;;;;;;;;;5114181;28;20081;-63
2021/03/10 01:07:57;;;;;;;25.98;19.33;;;;;;;;;;5114290;28;20061;-63
2021/03/10 01:10:42;;;;;;;24.58;18.90;;;;;;;;;;5114704;28;20440;-63
2021/03/10 01:13:28;;;;;;;22.30;17.92;;;;;;;;;;5093986;28;20105;-63
2021/03/10 01:16:14;;;;;;;26.00;19.02;;;;;;;;;;5093805;28;20052;-63
2021/03/10 01:18:59;;;;;;;25.80;19.63;;;;;;;;;;5094053;28;20130;-63
2021/03/10 01:21:44;;;;;;;24.25;18.80;;;;;;;;;;5098574;28;20074;-63
2021/03/10 01:24:30;;;;;;;22.55;17.95;;;;;;;;;;5113822;28;20035;-63
2021/03/10 01:27:17;;;;;;;22.23;18.20;;;;;;;;;;5114398;28;20135;-63
2021/03/10 01:30:03;;;;;;;22.63;18.83;;;;;;;;;;5114217;28;20433;-63
2021/03/10 01:32:48;;;;;;;22.60;17.15;;;;;;;;;;5114096;28;20567;-64
2021/03/10 01:35:33;;;;;;;22.20;18.02;;;;;;;;;;5113978;28;20063;-63
2021/03/10 01:38:19;;;;;;;22.23;17.60;;;;;;;;;;5114066;28;20047;-62
2021/03/10 01:41:05;;;;;;;24.05;17.15;;;;;;;;;;5113882;28;20052;-64
2021/03/10 01:43:50;;;;;;;23.55;17.17;;;;;;;;;;5113968;28;20520;-63
2021/03/10 01:46:40;;;;;;;24.58;19.58;;;;;;;;;;5113858;28;20132;-63
2021/03/10 01:49:25;;;;;;;21.90;17.55;;;;;;;;;;5113713;28;20508;-64
2021/03/10 01:52:10;;;;;;;20.60;16.83;;;;;;;;;;5112653;28;20052;-64
2021/03/10 01:54:56;;;;;;;21.58;18.08;;;;;;;;;;5092149;28;20048;-63
2021/03/10 01:57:41;;;;;;;21.05;16.95;;;;;;;;;;5093274;28;20048;-63
2021/03/10 02:00:29;;;;;;;22.70;18.17;;;;;;;;;;5093057;28;20044;-64
2021/03/10 02:03:14;;;;;;;24.77;19.23;;;;;;;;;;5108272;28;20089;-64
2021/03/10 02:05:59;;;;;;;25.35;19.00;;;;;;;;;;5113178;28;20044;-62
2021/03/10 02:08:50;;;;;;;24.45;18.85;;;;;;;;;;5112343;28;20044;-63
2021/03/10 02:11:40;;;;;;;24.05;18.27;;;;;;;;;;5112516;28;20055;-63
2021/03/10 02:14:29;;;;;;;21.20;16.80;;;;;;;;;;5097696;28;20127;-63
2021/03/10 02:17:15;;;;;;;23.30;18.80;;;;;;;;;;5113436;28;20048;-63
2021/03/10 02:20:05;;;;;;;25.17;19.42;;;;;;;;;;5111990;28;20035;-63
2021/03/10 02:22:51;;;;;;;24.98;19.10;;;;;;;;;;5113163;28;20132;-63
2021/03/10 02:25:41;;;;;;;25.25;19.95;;;;;;;;;;5112172;28;20043;-63
2021/03/10 02:28:27;;;;;;;29.80;20.42;;;;;;;;;;5112123;28;20048;-64
2021/03/10 02:31:13;;;;;;;25.65;19.75;;;;;;;;;;5111955;28;20101;-63
2021/03/10 02:33:58;;;;;;;26.70;20.13;;;;;;;;;;5112720;28;20043;-63
2021/03/10 02:36:45;;;;;;;23.45;17.05;;;;;;;;;;5111899;28;20048;-63
2021/03/10 02:39:30;;;;;;;25.02;19.25;;;;;;;;;;5111762;28;20040;-63
2021/03/10 02:42:16;;;;;;;25.70;19.65;;;;;;;;;;5111806;28;20043;-64
2021/03/10 02:45:01;;;;;;;22.92;18.67;;;;;;;;;;5112365;28;20051;-63
2021/03/10 02:47:46;;;;;;;25.98;20.35;;;;;;;;;;5111740;28;20046;-64
2021/03/10 02:50:31;;;;;;;30.27;21.65;;;;;;;;;;5111516;28;20485;-63
2021/03/10 02:53:16;;;;;;;26.23;19.38;;;;;;;;;;5112769;28;20044;-63
2021/03/10 02:56:02;;;;;;;26.90;19.50;;;;;;;;;;5112195;28;20097;-64
2021/03/10 02:58:47;;;;;;;24.38;18.60;;;;;;;;;;5112569;28;20051;-63
2021/03/10 03:01:32;;;;;;;25.33;18.73;;;;;;;;;;5112633;28;20501;-63
2021/03/10 03:04:18;;;;;;;26.23;19.40;;;;;;;;;;5112420;28;20409;-63
2021/03/10 03:07:03;;;;;;;24.15;18.95;;;;;;;;;;5112225;28;20051;-63
2021/03/10 03:09:48;;;;;;;23.08;18.98;;;;;;;;;;5112415;28;20036;-63
2021/03/10 03:12:33;;;;;;;25.77;19.55;;;;;;;;;;5111503;28;20048;-63
2021/03/10 03:15:22;;;;;;;24.08;19.17;;;;;;;;;;5110841;28;20413;-63
2021/03/10 03:18:08;;;;;;;23.50;18.95;;;;;;;;;;5112580;28;20048;-63
2021/03/10 03:20:53;;;;;;;24.35;18.88;;;;;;;;;;5111169;28;20039;-63
2021/03/10 03:23:38;;;;;;;25.10;20.35;;;;;;;;;;5112341;28;20044;-63
2021/03/10 03:26:24;;;;;;;23.75;19.05;;;;;;;;;;5110919;28;20051;-63
2021/03/10 03:29:09;;;;;;;22.42;18.98;;;;;;;;;;5112284;28;20044;-63
2021/03/10 03:31:55;;;;;;;23.85;18.80;;;;;;;;;;5112202;28;20051;-63
2021/03/10 03:34:40;;;;;;;24.05;18.50;;;;;;;;;;5111969;28;20497;-63
2021/03/10 03:37:25;;;;;;;22.80;18.90;;;;;;;;;;5113332;28;20067;-62
2021/03/10 03:40:11;;;;;;;23.70;19.25;;;;;;;;;;5115239;28;20040;-63
2021/03/10 03:42:56;;;;;;;24.95;19.05;;;;;;;;;;5116214;28;20405;-63
2021/03/10 03:45:42;;;;;;;21.95;17.70;;;;;;;;;;5115994;28;20043;-63
2021/03/10 03:48:28;;;;;;;24.27;18.80;;;;;;;;;;5115994;28;20545;-63
2021/03/10 03:51:26;;;;;;;21.85;16.75;;;;;;;;;;5114865;28;20040;-63
2021/03/10 03:54:11;;;;;;;21.98;17.50;;;;;;;;;;5115249;28;20040;-63
2021/03/10 03:56:56;;;;;;;23.15;17.65;;;;;;;;;;5115677;28;20047;-62
2021/03/10 03:59:42;;;;;;;24.48;18.42;;;;;;;;;;5116179;28;20052;-63
2021/03/10 04:02:27;;;;;;;28.88;19.60;;;;;;;;;;5115945;28;20054;-63
2021/03/10 04:05:13;;;;;;;24.55;18.60;;;;;;;;;;5115465;28;20040;-62
2021/03/10 04:07:59;;;;;;;26.75;19.17;;;;;;;;;;5115634;28;20558;-63
2021/03/10 04:10:44;;;;;;;26.17;19.70;;;;;;;;;;5115659;28;20118;-62
2021/03/10 04:13:30;;;;;;;24.10;18.60;;;;;;;;;;5115619;28;20044;-62
2021/03/10 04:16:15;;;;;;;27.80;19.63;;;;;;;;;;5115330;28;20504;-63
2021/03/10 04:19:00;;;;;;;27.17;19.48;;;;;;;;;;5115269;28;20051;-62
2021/03/10 04:21:45;;;;;;;24.08;18.95;;;;;;;;;;5115558;28;20443;-63
2021/03/10 04:24:31;;;;;;;25.38;20.17;;;;;;;;;;5115434;28;20043;-63
2021/03/10 04:27:16;;;;;;;24.83;19.20;;;;;;;;;;5115512;28;20485;-63
2021/03/10 04:30:03;;;;;;;27.45;19.90;;;;;;;;;;5093962;28;20036;-62
2021/03/10 04:32:48;;;;;;;26.52;19.55;;;;;;;;;;5094889;28;20040;-63
2021/03/10 04:35:33;;;;;;;28.85;20.67;;;;;;;;;;5094587;28;20515;-63
2021/03/10 04:38:19;;;;;;;30.83;21.52;;;;;;;;;;5098610;28;20039;-62
2021/03/10 04:41:04;;;;;;;33.55;21.08;;;;;;;;;;5115219;28;20051;-63
2021/03/10 04:43:49;;;;;;;28.63;20.48;;;;;;;;;;5115200;28;20051;-62
2021/03/10 04:46:35;;;;;;;31.13;21.30;;;;;;;;;;5114858;28;20478;-62
2021/03/10 04:49:20;;;;;;;32.20;20.95;;;;;;;;;;5114257;28;20445;-63
2021/03/10 04:52:06;;;;;;;34.33;22.92;;;;;;;;;;5115018;28;20047;-63
2021/03/10 04:54:51;;;;;;;32.75;22.42;;;;;;;;;;5114580;28;20043;-63
2021/03/10 04:57:37;;;;;;;34.88;23.85;;;;;;;;;;5115042;28;20127;-63
2021/03/10 05:00:22;;;;;;;36.88;23.67;;;;;;;;;;5114442;28;20493;-63
2021/03/10 05:03:08;;;;;;;33.50;22.75;;;;;;;;;;5114698;28;20039;-62
2021/03/10 05:05:53;;;;;;;32.78;22.95;;;;;;;;;;5114294;28;20048;-64
2021/03/10 05:08:38;;;;;;;36.30;22.45;;;;;;;;;;5114687;28;20409;-63
2021/03/10 05:11:24;;;;;;;35.80;23.48;;;;;;;;;;5094180;28;20134;-63
2021/03/10 05:14:09;;;;;;;35.40;23.45;;;;;;;;;;5093879;28;20044;-64
2021/03/10 05:16:54;;;;;;;37.53;25.05;;;;;;;;;;5094015;28;20044;-63
2021/03/10 05:19:40;;;;;;;40.25;26.77;;;;;;;;;;5097056;28;20055;-63
2021/03/10 05:22:26;;;;;;;36.50;24.75;;;;;;;;;;5114285;28;20494;-63
2021/03/10 05:25:11;;;;;;;38.20;27.20;;;;;;;;;;5114157;28;20440;-63
2021/03/10 05:27:56;;;;;;;39.92;26.42;;;;;;;;;;5114221;28;20498;-63
2021/03/10 05:30:42;;;;;;;42.55;27.83;;;;;;;;;;5112796;28;20097;-63
2021/03/10 05:33:27;;;;;;;40.78;26.92;;;;;;;;;;5114214;28;20039;-63
2021/03/10 05:36:12;;;;;;;37.75;25.85;;;;;;;;;;5113911;28;20052;-63
2021/03/10 05:38:58;;;;;;;39.92;25.35;;;;;;;;;;5113917;28;20043;-64
2021/03/10 05:41:43;;;;;;;37.55;25.63;;;;;;;;;;5113876;28;20051;-63
2021/03/10 05:44:28;;;;;;;40.35;26.15;;;;;;;;;;5113749;28;20114;-63
2021/03/10 05:47:14;;;;;;;34.75;24.60;;;;;;;;;;5113597;28;20386;-63
2021/03/10 05:49:59;;;;;;;35.30;25.05;;;;;;;;;;5112876;28;20040;-63
2021/03/10 05:52:44;;;;;;;38.15;25.38;;;;;;;;;;5113734;28;20083;-63
2021/03/10 05:55:31;;;;;;;38.28;24.25;;;;;;;;;;5113486;28;20051;-63
2021/03/10 05:58:16;;;;;;;35.70;24.67;;;;;;;;;;5113795;28;20170;-63
2021/03/10 06:01:02;;;;;;;34.58;24.60;;;;;;;;;;5112461;28;20048;-63
2021/03/10 06:03:53;;;;;;;34.35;25.15;;;;;;;;;;5113507;28;20051;-64
2021/03/10 06:06:39;;;;;;;32.88;23.98;;;;;;;;;;5113258;28;20476;-63
2021/03/10 06:09:24;;;;;;;30.33;22.98;;;;;;;;;;5113390;28;20040;-63
2021/03/10 06:12:10;;;;;;;33.40;24.20;;;;;;;;;;5112912;28;20046;-64
2021/03/10 06:15:01;;;;;;;35.58;23.15;;;;;;;;;;5113217;28;20046;-63
2021/03/10 06:17:47;;;;;;;32.47;23.75;;;;;;;;;;5113245;28;20043;-64
2021/03/10 06:20:33;;;;;;;35.42;25.35;;;;;;;;;;5120410;22;20047;-61
2021/03/10 06:23:18;;;;;;;35.17;24.83;;;;;;;;;;5071413;28;20118;-62
2021/03/10 06:26:04;;;;;;;34.72;23.83;;;;;;;;;;5072070;28;20230;-62
2021/03/10 06:28:49;;;;;;;35.80;24.42;;;;;;;;;;5072395;28;20036;-62
2021/03/10 06:31:35;;;;;;;34.67;23.85;;;;;;;;;;5086143;28;20044;-62
2021/03/10 06:34:20;;;;;;;35.00;24.27;;;;;;;;;;5092384;28;20047;-62
2021/03/10 06:37:05;;;;;;;31.80;23.05;;;;;;;;;;5080335;28;20048;-62
2021/03/10 06:39:51;;;;;;;31.67;22.98;;;;;;;;;;5072497;28;20053;-62
2021/03/10 06:42:36;;;;;;;33.05;24.05;;;;;;;;;;5072413;28;20056;-62
2021/03/10 06:45:33;;;;;;;31.80;24.73;;;;;;;;;;5071808;28;20510;-62
2021/03/10 06:48:19;;;;;;;39.00;25.08;;;;;;;;;;5090282;28;20565;-62
2021/03/10 06:51:13;;;;;;;34.00;23.23;;;;;;;;;;5090750;28;20074;-62
2021/03/10 06:53:58;;;;;;;32.85;23.80;;;;;;;;;;5092223;28;20044;-62
2021/03/10 06:56:43;;;;;;;35.25;23.13;;;;;;;;;;5089447;28;20044;-62
2021/03/10 06:59:48;;;;;;;30.77;21.77;;;;;;;;;;5072088;28;20075;-61
2021/03/10 07:02:33;;;;;;;27.92;21.08;;;;;;;;;;5071982;28;20564;-61
2021/03/10 07:05:18;;;;;;;28.48;21.33;;;;;;;;;;5071527;28;20402;-61
2021/03/10 07:08:05;;;;;;;29.40;21.88;;;;;;;;;;5072321;28;20049;-62
2021/03/10 07:10:51;;;;;;;29.08;20.92;;;;;;;;;;5056823;28;20076;-62
2021/03/10 07:13:36;;;;;;;29.77;21.63;;;;;;;;;;5057058;28;20128;-61
2021/03/10 07:16:21;;;;;;;28.92;21.73;;;;;;;;;;5071582;28;20119;-61
2021/03/10 07:19:08;;;;;;;31.17;22.70;;;;;;;;;;5088224;28;20405;-62
2021/03/10 07:22:03;;;;;;;31.20;20.17;;;;;;;;;;5091849;28;20143;-61
2021/03/10 07:24:55;;;;;;;30.48;21.42;;;;;;;;;;5076631;28;20044;-61
2021/03/10 07:27:45;;;;;;;30.30;20.83;;;;;;;;;;5090243;28;20052;-61
2021/03/10 07:30:34;;;;;;;28.17;20.67;;;;;;;;;;5076725;28;20501;-61
2021/03/10 07:33:20;;;;;;;29.80;19.90;;;;;;;;;;5088747;28;20041;-62
2021/03/10 07:36:06;;;;;;;29.60;21.42;;;;;;;;;;5064203;28;20040;-61
2021/03/10 07:38:51;;;;;;;27.15;19.25;;;;;;;;;;5078753;28;20052;-62
2021/03/10 07:41:38;;;;;;;26.15;19.15;;;;;;;;;;5076893;28;20117;-62
2021/03/10 07:44:24;;;;;;;25.42;19.60;;;;;;;;;;5091706;28;20395;-61
2021/03/10 07:47:11;;;;;;;27.98;19.95;;;;;;;;;;5091844;28;20055;-61
2021/03/10 07:49:59;;;;;;;28.58;19.92;;;;;;;;;;5078235;28;20044;-61
2021/03/10 07:52:54;;;;;;;23.40;17.98;;;;;;;;;;5071736;28;20045;-61
2021/03/10 07:55:43;;;;;;;28.15;20.13;;;;;;;;;;5071366;28;20045;-62
2021/03/10 07:58:28;;;;;;;26.40;19.33;;;;;;;;;;5071493;28;20045;-61
2021/03/10 08:01:17;;;;;;;25.90;19.30;;;;;;;;;;5072380;28;20514;-61
2021/03/10 08:04:08;;;;;;;24.95;19.05;;;;;;;;;;5071540;28;20048;-61
2021/03/10 08:06:54;;;;;;;26.10;18.50;;;;;;;;;;5071325;28;20128;-62
2021/03/10 08:09:48;;;;;;;27.05;19.35;;;;;;;;;;5072698;28;20064;-62
2021/03/10 08:12:34;;;;;;;25.65;18.23;;;;;;;;;;5056379;28;20040;-61
2021/03/10 08:15:23;;;;;;;26.85;20.10;;;;;;;;;;5071034;28;20044;-62
2021/03/10 08:18:08;;;;;;;25.00;18.60;;;;;;;;;;5071458;28;20045;-61
2021/03/10 08:20:54;;;;;;;27.42;19.95;;;;;;;;;;5089955;28;20078;-61
2021/03/10 08:23:40;;;;;;;24.40;18.48;;;;;;;;;;5077422;28;20481;-62
2021/03/10 08:26:25;;;;;;;27.92;19.33;;;;;;;;;;5094773;28;20082;-62
2021/03/10 08:29:10;;;;;;;24.13;18.10;;;;;;;;;;5093026;28;20039;-63
2021/03/10 08:31:58;;;;;;;26.55;18.30;;;;;;;;;;5075123;28;20044;-61
2021/03/10 08:34:44;;;;;;;26.33;18.58;;;;;;;;;;5074627;28;20226;-61
2021/03/10 08:37:29;;;;;;;26.05;19.00;;;;;;;;;;5059506;28;20049;-61
2021/03/10 08:40:18;;;;;;;25.10;19.38;;;;;;;;;;5081808;28;20097;-62
2021/03/10 08:43:03;;;;;;;25.90;19.73;;;;;;;;;;5094741;28;20047;-62
2021/03/10 08:45:48;;;;;;;29.90;21.30;;;;;;;;;;5094360;28;20127;-62
2021/03/10 08:48:34;;;;;;;25.80;20.63;;;;;;;;;;5094540;28;20040;-61
2021/03/10 08:51:21;;;;;;;29.95;20.58;;;;;;;;;;5080376;28;20123;-62
2021/03/10 08:54:07;;;;;;;26.92;20.85;;;;;;;;;;5059155;28;20533;-62
2021/03/10 08:56:52;;;;;;;25.98;20.98;;;;;;;;;;5074150;28;20514;-61
2021/03/10 08:59:39;;;;;;;30.83;21.90;;;;;;;;;;5059121;28;20258;-61
2021/03/10 09:02:30;;;;;;;29.77;22.25;;;;;;;;;;5075288;28;20055;-61
2021/03/10 09:05:17;;;;;;;31.48;22.55;;;;;;;;;;5058677;28;20044;-61
2021/03/10 09:08:06;;;;;;;31.42;22.13;;;;;;;;;;5058988;28;20052;-62
2021/03/10 09:10:53;;;;;;;30.23;23.52;;;;;;;;;;5059049;28;20761;-62
2021/03/10 09:13:54;;;;;;;32.28;24.60;;;;;;;;;;5058613;28;20494;-62
2021/03/10 09:16:50;;;;;;;33.40;23.67;;;;;;;;;;5058710;28;20064;-62
2021/03/10 09:19:42;;;;;;;30.92;23.98;;;;;;;;;;5058655;28;20049;-61
2021/03/10 09:22:31;;;;;;;34.95;24.52;;;;;;;;;;5072251;28;20048;-62
2021/03/10 09:25:26;;;;;;;34.67;25.35;;;;;;;;;;5078485;28;20048;-62
2021/03/10 09:28:19;;;;;;;34.15;24.33;;;;;;;;;;5078429;28;20040;-62
2021/03/10 09:31:25;;;;;;;34.47;25.27;;;;;;;;;;5076460;28;20437;-61
2021/03/10 09:34:24;;;;;;;36.58;25.65;;;;;;;;;;5045498;28;20044;-62
2021/03/10 09:37:13;;;;;;;33.97;25.33;;;;;;;;;;5044953;28;20050;-61
2021/03/10 09:39:59;;;;;;;34.50;24.95;;;;;;;;;;5058170;28;20042;-61
2021/03/10 09:43:01;;;;;;;35.65;25.90;;;;;;;;;;5059173;28;20045;-61
2021/03/10 09:45:46;;;;;;;34.78;26.35;;;;;;;;;;5057949;28;20045;-62
2021/03/10 09:48:31;;;;;;;32.28;23.90;;;;;;;;;;5058148;28;20070;-61
2021/03/10 09:51:19;;;;;;;33.85;25.70;;;;;;;;;;5057821;28;20056;-61
2021/03/10 09:54:08;;;;;;;34.30;26.63;;;;;;;;;;5076297;28;20036;-61
2021/03/10 09:56:57;;;;;;;33.47;25.65;;;;;;;;;;5076889;28;20039;-62
2021/03/10 10:00:02;;;;;;;33.92;25.88;;;;;;;;;;5067089;28;20135;-61
2021/03/10 10:02:49;;;;;;;33.25;24.17;;;;;;;;;;5082931;28;20456;-61
2021/03/10 10:05:40;;;;;;;33.75;25.35;;;;;;;;;;5066346;28;20040;-61
2021/03/10 10:08:26;;;;;;;36.40;26.95;;;;;;;;;;5065780;28;20048;-62
2021/03/10 10:11:12;;;;;;;36.05;26.23;;;;;;;;;;5068165;28;20048;-61
2021/03/10 10:13:57;;;;;;;34.00;26.58;;;;;;;;;;5080961;28;20049;-63
2021/03/10 10:16:43;;;;;;;37.97;26.83;;;;;;;;;;5080062;28;20037;-61
2021/03/10 10:19:35;;;;;;;39.42;27.73;;;;;;;;;;5054039;28;20045;-62
2021/03/10 10:22:20;;;;;;;37.35;27.42;;;;;;;;;;5082741;28;20525;-62
2021/03/10 10:25:06;;;;;;;38.33;26.02;;;;;;;;;;5082866;28;20037;-61
2021/03/10 10:27:54;;;;;;;37.03;27.73;;;;;;;;;;5068032;28;20032;-62
2021/03/10 10:30:39;;;;;;;33.70;26.52;;;;;;;;;;5067862;28;20519;-62
2021/03/10 10:33:26;;;;;;;38.33;28.52;;;;;;;;;;5083234;28;20123;-62
2021/03/10 10:36:13;;;;;;;34.28;26.92;;;;;;;;;;5066313;28;20490;-62
2021/03/10 10:39:03;;;;;;;36.95;28.27;;;;;;;;;;5057183;28;20053;-61
2021/03/10 10:41:49;;;;;;;36.97;26.13;;;;;;;;;;5076056;28;20406;-62
2021/03/10 10:44:38;;;;;;;39.35;27.13;;;;;;;;;;5092269;28;20047;-62
2021/03/10 10:47:23;;;;;;;37.42;28.65;;;;;;;;;;5076518;28;20127;-61
2021/03/10 10:50:13;;;;;;;38.78;28.25;;;;;;;;;;5089204;28;20049;-61
2021/03/10 10:53:02;;;;;;;39.90;28.65;;;;;;;;;;5057055;28;20418;-60
2021/03/10 10:55:48;;;;;;;42.75;29.45;;;;;;;;;;5056626;28;20650;-61
2021/03/10 10:58:34;;;;;;;37.75;28.77;;;;;;;;;;5057048;28;20083;-61
2021/03/10 11:01:19;;;;;;;36.90;27.38;;;;;;;;;;5065841;28;20036;-62
2021/03/10 11:04:05;;;;;;;34.97;26.50;;;;;;;;;;5092152;28;20672;-63
2021/03/10 11:06:50;;;;;;;37.22;27.90;;;;;;;;;;5076958;28;20047;-61
2021/03/10 11:09:37;;;;;;;35.05;27.58;;;;;;;;;;5076809;28;20421;-61
2021/03/10 11:12:22;;;;;;;40.72;29.00;;;;;;;;;;5077245;28;20048;-61
2021/03/10 11:15:16;;;;;;;36.53;28.15;;;;;;;;;;5056499;28;20504;-62
2021/03/10 11:18:09;;;;;;;37.20;28.42;;;;;;;;;;5056605;28;20056;-62
2021/03/10 11:20:55;;;;;;;38.88;28.30;;;;;;;;;;5056391;28;20044;-61
2021/03/10 11:23:42;;;;;;;40.22;27.60;;;;;;;;;;5057764;28;20048;-61
2021/03/10 11:26:28;;;;;;;35.28;26.65;;;;;;;;;;5056223;28;20048;-61
2021/03/10 11:29:13;;;;;;;32.35;25.33;;;;;;;;;;5071582;28;20418;-62
2021/03/10 11:32:01;;;;;;;32.28;24.50;;;;;;;;;;5076991;28;20032;-61
2021/03/10 11:34:47;;;;;;;32.08;24.75;;;;;;;;;;5076297;28;20044;-61
2021/03/10 11:37:33;;;;;;;35.03;26.52;;;;;;;;;;5076683;28;20052;-62
2021/03/10 11:40:19;;;;;;;36.22;27.75;;;;;;;;;;5076459;28;20040;-61
2021/03/10 11:43:06;;;;;;;32.17;26.30;;;;;;;;;;5064124;28;20044;-61
2021/03/10 11:45:51;;;;;;;32.35;24.95;;;;;;;;;;5071305;28;20561;-62
2021/03/10 11:48:36;;;;;;;37.35;25.42;;;;;;;;;;5071506;28;20032;-62
2021/03/10 11:51:21;;;;;;;36.33;26.20;;;;;;;;;;5071526;28;20045;-61
2021/03/10 11:54:08;;;;;;;35.17;25.17;;;;;;;;;;5088864;28;20044;-62
2021/03/10 11:56:53;;;;;;;34.53;25.13;;;;;;;;;;5088663;28;20120;-61
2021/03/10 11:59:38;;;;;;;34.53;26.67;;;;;;;;;;5082986;28;20494;-61
2021/03/10 12:02:29;;;;;;;32.78;26.73;;;;;;;;;;5085353;28;20053;-61
2021/03/10 12:05:19;;;;;;;36.28;25.55;;;;;;;;;;5069089;28;20128;-61
2021/03/10 12:08:05;;;;;;;35.78;25.83;;;;;;;;;;5085031;28;20040;-61
2021/03/10 12:10:51;;;;;;;34.25;25.80;;;;;;;;;;5085655;28;20052;-61
2021/03/10 12:13:36;;;;;;;33.35;25.63;;;;;;;;;;5083229;28;20068;-62
2021/03/10 12:16:22;;;;;;;39.00;26.55;;;;;;;;;;5084256;28;20037;-61
2021/03/10 12:19:07;;;;;;;35.13;25.08;;;;;;;;;;5088039;28;20048;-61
2021/03/10 12:21:52;;;;;;;31.60;25.52;;;;;;;;;;5095209;28;20123;-62
2021/03/10 12:24:38;;;;;;;33.65;24.75;;;;;;;;;;5082474;28;20044;-63
2021/03/10 12:27:24;;;;;;;36.78;25.00;;;;;;;;;;5074576;28;20048;-62
2021/03/10 12:30:09;;;;;;;32.63;24.75;;;;;;;;;;5074638;28;20048;-62
2021/03/10 12:32:55;;;;;;;34.58;25.05;;;;;;;;;;5059643;28;20131;-62
2021/03/10 12:35:40;;;;;;;33.60;26.30;;;;;;;;;;5091928;28;20093;-62
2021/03/10 12:38:25;;;;;;;31.50;24.38;;;;;;;;;;5095021;28;20098;-63
2021/03/10 12:41:11;;;;;;;30.08;24.38;;;;;;;;;;5094804;28;20048;-62
2021/03/10 12:43:56;;;;;;;34.75;26.27;;;;;;;;;;5094004;28;20048;-62
2021/03/10 12:46:42;;;;;;;35.17;26.23;;;;;;;;;;5074351;28;20052;-63
2021/03/10 12:49:28;;;;;;;34.28;26.98;;;;;;;;;;5074506;28;20485;-62
2021/03/10 12:52:13;;;;;;;32.08;24.20;;;;;;;;;;5074185;28;20055;-61
2021/03/10 12:54:59;;;;;;;36.15;25.58;;;;;;;;;;5080074;28;20071;-62
2021/03/10 12:57:44;;;;;;;36.28;26.60;;;;;;;;;;5076352;28;20135;-62
2021/03/10 13:00:30;;;;;;;38.65;27.15;;;;;;;;;;5090631;28;20047;-62
2021/03/10 13:03:16;;;;;;;34.75;25.73;;;;;;;;;;5082384;28;20127;-62
2021/03/10 13:06:01;;;;;;;34.50;25.67;;;;;;;;;;5081823;28;20049;-62
2021/03/10 13:08:46;;;;;;;33.13;25.67;;;;;;;;;;5058451;28;20490;-61
2021/03/10 13:11:31;;;;;;;34.22;25.35;;;;;;;;;;5084401;28;20405;-62
2021/03/10 13:14:17;;;;;;;34.38;26.67;;;;;;;;;;5061777;28;20115;-61
2021/03/10 13:17:02;;;;;;;34.13;24.83;;;;;;;;;;5086769;28;20040;-61
2021/03/10 13:19:49;;;;;;;35.45;24.65;;;;;;;;;;5086557;28;20044;-61
2021/03/10 13:22:34;;;;;;;30.88;25.27;;;;;;;;;;5077322;28;20067;-63
2021/03/10 13:25:20;;;;;;;35.65;26.00;;;;;;;;;;5078970;28;20043;-62
2021/03/10 13:28:05;;;;;;;34.60;25.88;;;;;;;;;;5075171;28;20048;-62
2021/03/10 13:30:52;;;;;;;32.92;25.60;;;;;;;;;;5077411;28;20036;-63
2021/03/10 13:33:37;;;;;;;34.50;25.13;;;;;;;;;;5083234;28;20056;-63
2021/03/10 13:36:23;;;;;;;35.50;25.77;;;;;;;;;;5089026;28;20039;-62
2021/03/10 13:39:08;;;;;;;32.47;24.40;;;;;;;;;;5079740;28;20417;-63
2021/03/10 13:41:54;;;;;;;35.30;26.48;;;;;;;;;;5080381;28;20040;-63
2021/03/10 13:44:39;;;;;;;33.33;23.30;;;;;;;;;;5091675;28;20656;-61
2021/03/10 13:47:24;;;;;;;29.30;23.48;;;;;;;;;;5089756;28;20103;-62
2021/03/10 13:50:10;;;;;;;30.67;23.88;;;;;;;;;;5078153;28;20433;-63
2021/03/10 13:52:55;;;;;;;35.50;24.52;;;;;;;;;;5077244;28;20069;-63
2021/03/10 13:55:40;;;;;;;30.58;23.70;;;;;;;;;;5081877;28;20040;-62
2021/03/10 13:58:25;;;;;;;30.52;24.70;;;;;;;;;;5073179;28;20044;-62
2021/03/10 14:01:11;;;;;;;28.75;23.05;;;;;;;;;;5085954;28;20490;-62
2021/03/10 14:03:56;;;;;;;35.25;24.50;;;;;;;;;;5085702;28;20121;-62
2021/03/10 14:06:41;;;;;;;31.17;23.27;;;;;;;;;;5089894;28;20498;-62
2021/03/10 14:09:27;;;;;;;34.65;24.30;;;;;;;;;;5081319;28;20039;-62
2021/03/10 14:12:12;;;;;;;36.67;25.08;;;;;;;;;;5087428;28;20074;-63
2021/03/10 14:14:57;;;;;;;28.17;22.17;;;;;;;;;;5076898;28;20044;-64
2021/03/10 14:17:43;;;;;;;31.65;23.25;;;;;;;;;;5084950;28;20044;-64
2021/03/10 14:20:28;;;;;;;28.88;23.05;;;;;;;;;;5075313;28;20402;-63
2021/03/10 14:23:14;;;;;;;31.00;23.40;;;;;;;;;;5084825;28;20044;-63
2021/03/10 14:25:59;;;;;;;28.25;22.98;;;;;;;;;;5071905;28;20119;-63
2021/03/10 14:28:45;;;;;;;35.05;24.30;;;;;;;;;;5085769;28;20044;-63
2021/03/10 14:31:30;;;;;;;29.30;22.67;;;;;;;;;;5082880;28;20052;-63
2021/03/10 14:34:16;;;;;;;34.30;22.92;;;;;;;;;;5087529;28;20055;-63
2021/03/10 14:37:01;;;;;;;35.75;24.55;;;;;;;;;;5077515;28;20044;-63
2021/03/10 14:39:46;;;;;;;27.58;22.00;;;;;;;;;;5077270;28;20051;-63
2021/03/10 14:42:32;;;;;;;29.05;23.38;;;;;;;;;;5073267;28;20048;-63
2021/03/10 14:45:17;;;;;;;32.35;22.30;;;;;;;;;;5084032;28;20040;-63
2021/03/10 14:48:03;;;;;;;30.63;22.45;;;;;;;;;;5085942;28;20135;-63
2021/03/10 14:50:48;;;;;;;28.58;23.02;;;;;;;;;;5088156;28;20037;-63
2021/03/10 14:53:34;;;;;;;29.85;23.40;;;;;;;;;;5074617;28;20509;-62
2021/03/10 14:56:19;;;;;;;29.52;23.23;;;;;;;;;;5078326;28;20676;-63
2021/03/10 14:59:04;;;;;;;29.98;22.83;;;;;;;;;;5074283;28;20513;-64
2021/03/10 15:01:50;;;;;;;28.83;21.50;;;;;;;;;;5091557;28;20133;-64
2021/03/10 15:04:35;;;;;;;30.17;21.83;;;;;;;;;;5074694;28;20044;-64
2021/03/10 15:07:20;;;;;;;29.98;21.30;;;;;;;;;;5083429;28;20402;-63
2021/03/10 15:10:07;;;;;;;29.42;22.23;;;;;;;;;;5084727;28;20040;-63
2021/03/10 15:12:52;;;;;;;27.88;21.83;;;;;;;;;;5075344;28;20425;-62
2021/03/10 15:15:37;;;;;;;34.45;25.02;;;;;;;;;;5080156;28;20127;-63
2021/03/10 15:18:23;;;;;;;27.52;21.60;;;;;;;;;;5087689;28;20055;-63
2021/03/10 15:21:08;;;;;;;32.78;23.60;;;;;;;;;;5084065;28;20055;-63
2021/03/10 15:23:54;;;;;;;27.27;20.38;;;;;;;;;;5083893;28;20040;-63
2021/03/10 15:26:39;;;;;;;30.08;22.02;;;;;;;;;;5074461;28;20044;-63
2021/03/10 15:29:24;;;;;;;28.33;22.30;;;;;;;;;;5082542;28;20052;-63
2021/03/10 15:32:10;;;;;;;30.63;23.73;;;;;;;;;;5077861;28;20127;-63
2021/03/10 15:34:55;;;;;;;29.90;23.23;;;;;;;;;;5079150;28;20036;-65
2021/03/10 15:37:41;;;;;;;30.27;22.60;;;;;;;;;;5084519;28;20521;-65
2021/03/10 15:40:26;;;;;;;29.85;23.73;;;;;;;;;;5091192;28;20109;-62
2021/03/10 15:43:12;;;;;;;29.45;23.30;;;;;;;;;;5081797;28;20044;-62
2021/03/10 15:45:57;;;;;;;29.40;22.92;;;;;;;;;;5081909;28;20112;-63
2021/03/10 15:48:42;;;;;;;28.50;21.23;;;;;;;;;;5094501;28;20052;-62
2021/03/10 15:51:27;;;;;;;28.77;21.45;;;;;;;;;;5086834;28;20048;-62
2021/03/10 15:54:13;;;;;;;29.77;23.08;;;;;;;;;;5090134;28;20036;-64
2021/03/10 15:56:58;;;;;;;27.98;21.80;;;;;;;;;;5079865;28;20425;-62
2021/03/10 15:59:44;;;;;;;30.52;22.40;;;;;;;;;;5083361;28;20057;-63
2021/03/10 16:02:29;;;;;;;29.25;22.55;;;;;;;;;;5091069;28;20044;-63
2021/03/10 16:05:14;;;;;;;28.88;22.02;;;;;;;;;;5081686;28;20040;-63
2021/03/10 16:08:00;;;;;;;30.08;22.52;;;;;;;;;;5081027;28;20119;-63